Time;durP1;ratioP1;P1;durP2;ratioP2;P2;SDS_P1;SDS_P2;PMS_P1;PMS_P2;Temp;Humidity;BMP_temperature;BMP_pressure;BME280_temperature;BME280_humidity;BME280_pressure;Samples;Min_cycle;Max_cycle;Signal;HPM_P1;HPM_P2
2023/04/28 00:01:42;;;;;;;5.40;3.63;;;;;;;;;;4986023;28;20286;-68
2023/04/28 00:04:07;;;;;;;5.40;3.50;;;;;;;;;;4988358;28;20248;-69
2023/04/28 00:06:33;;;;;;;4.67;3.40;;;;;;;;;;4990161;28;20640;-69
2023/04/28 00:08:58;;;;;;;6.67;4.20;;;;;;;;;;4989345;28;20203;-69
2023/04/28 00:11:23;;;;;;;6.00;3.97;;;;;;;;;;4984868;28;20192;-69
2023/04/28 00:13:49;;;;;;;6.80;4.07;;;;;;;;;;4988842;28;20207;-69
2023/04/28 00:16:14;;;;;;;5.93;4.47;;;;;;;;;;4982668;28;20287;-69
2023/04/28 00:18:39;;;;;;;5.20;3.90;;;;;;;;;;4985232;28;20200;-69
2023/04/28 00:21:05;;;;;;;9.90;4.17;;;;;;;;;;4975697;28;20655;-69
2023/04/28 00:23:30;;;;;;;5.13;3.73;;;;;;;;;;4979571;28;20176;-69
2023/04/28 00:25:56;;;;;;;8.83;4.13;;;;;;;;;;4987139;28;20176;-69
2023/04/28 00:28:21;;;;;;;6.60;4.63;;;;;;;;;;4981069;28;20647;-69
2023/04/28 00:30:46;;;;;;;8.33;4.50;;;;;;;;;;4981253;28;20655;-70
2023/04/28 00:33:12;;;;;;;5.93;4.00;;;;;;;;;;4984656;28;20210;-69
2023/04/28 00:35:37;;;;;;;8.37;5.07;;;;;;;;;;4982370;28;20558;-69
2023/04/28 00:38:03;;;;;;;8.10;5.00;;;;;;;;;;4982767;28;20219;-69
2023/04/28 00:40:34;;;;;;;6.27;4.10;;;;;;;;;;4983279;28;20258;-69
2023/04/28 00:42:59;;;;;;;7.53;5.07;;;;;;;;;;4983243;28;20606;-69
2023/04/28 00:45:25;;;;;;;6.40;4.37;;;;;;;;;;4980587;28;20262;-69
2023/04/28 00:47:50;;;;;;;6.20;4.23;;;;;;;;;;4982136;28;20206;-69
2023/04/28 00:50:15;;;;;;;7.80;4.80;;;;;;;;;;4982957;28;20649;-69
2023/04/28 00:52:41;;;;;;;7.37;4.50;;;;;;;;;;4983391;28;20265;-69
2023/04/28 00:55:08;;;;;;;6.87;4.07;;;;;;;;;;4988080;28;20184;-68
2023/04/28 00:57:33;;;;;;;8.23;5.53;;;;;;;;;;4986653;28;21201;-69
2023/04/28 00:59:58;;;;;;;7.00;4.13;;;;;;;;;;4987695;28;20190;-69
2023/04/28 01:02:24;;;;;;;6.07;4.47;;;;;;;;;;4991177;28;20636;-69
2023/04/28 01:04:50;;;;;;;8.23;4.50;;;;;;;;;;4985311;28;20391;-69
2023/04/28 01:07:15;;;;;;;11.27;5.07;;;;;;;;;;4985854;28;20226;-69
2023/04/28 01:09:40;;;;;;;8.13;4.87;;;;;;;;;;4983636;28;20172;-69
2023/04/28 01:12:06;;;;;;;9.03;4.17;;;;;;;;;;4984130;28;20226;-69
2023/04/28 01:14:32;;;;;;;6.80;4.20;;;;;;;;;;4968873;28;20274;-69
2023/04/28 01:16:57;;;;;;;5.43;4.50;;;;;;;;;;4983825;28;20230;-69
2023/04/28 01:19:22;;;;;;;8.50;5.20;;;;;;;;;;4989163;28;20191;-69
2023/04/28 01:21:50;;;;;;;7.23;4.63;;;;;;;;;;4983941;28;20549;-69
2023/04/28 01:24:16;;;;;;;7.27;4.40;;;;;;;;;;4988472;28;20600;-69
2023/04/28 01:26:41;;;;;;;5.57;4.17;;;;;;;;;;4989127;28;20275;-69
2023/04/28 01:29:06;;;;;;;5.77;3.87;;;;;;;;;;4978687;28;20208;-69
2023/04/28 01:31:31;;;;;;;10.73;5.07;;;;;;;;;;4969077;28;20188;-69
2023/04/28 01:33:57;;;;;;;6.03;3.80;;;;;;;;;;4984138;28;20338;-69
2023/04/28 01:36:22;;;;;;;6.93;4.60;;;;;;;;;;4986294;28;20532;-69
2023/04/28 01:38:48;;;;;;;11.03;5.03;;;;;;;;;;4985897;28;20211;-69
2023/04/28 01:41:13;;;;;;;6.67;4.53;;;;;;;;;;4980631;28;20278;-69
2023/04/28 01:43:38;;;;;;;6.63;4.10;;;;;;;;;;4984922;28;20266;-69
2023/04/28 01:46:04;;;;;;;6.97;4.30;;;;;;;;;;4986441;28;20175;-69
2023/04/28 01:48:29;;;;;;;7.47;4.67;;;;;;;;;;4990914;28;20547;-69
2023/04/28 01:50:54;;;;;;;7.67;4.97;;;;;;;;;;4992801;28;20171;-69
2023/04/28 01:53:20;;;;;;;8.23;4.73;;;;;;;;;;4993372;28;20211;-69
2023/04/28 01:55:46;;;;;;;5.23;3.93;;;;;;;;;;4986997;28;20172;-69
2023/04/28 01:58:11;;;;;;;7.00;4.87;;;;;;;;;;4971613;28;20203;-69
2023/04/28 02:00:36;;;;;;;6.07;4.50;;;;;;;;;;4984184;28;20659;-69
2023/04/28 02:03:01;;;;;;;5.87;4.60;;;;;;;;;;4984822;28;20262;-69
2023/04/28 02:05:26;;;;;;;10.20;5.10;;;;;;;;;;4985735;28;20183;-69
2023/04/28 02:07:52;;;;;;;8.73;4.97;;;;;;;;;;4986527;28;20246;-68
2023/04/28 02:10:17;;;;;;;7.07;3.93;;;;;;;;;;4984549;28;20575;-69
2023/04/28 02:12:42;;;;;;;7.17;4.30;;;;;;;;;;4985462;28;20326;-69
2023/04/28 02:15:08;;;;;;;8.13;4.07;;;;;;;;;;4989033;28;20283;-69
2023/04/28 02:17:33;;;;;;;8.03;4.17;;;;;;;;;;4987196;28;20199;-69
2023/04/28 02:19:58;;;;;;;5.47;4.17;;;;;;;;;;4980926;28;20176;-69
2023/04/28 02:22:23;;;;;;;7.47;4.93;;;;;;;;;;4986916;28;20267;-69
2023/04/28 02:24:49;;;;;;;9.97;4.73;;;;;;;;;;4986287;28;20318;-69
2023/04/28 02:27:14;;;;;;;8.77;3.70;;;;;;;;;;4987461;28;20575;-69
2023/04/28 02:29:39;;;;;;;8.33;4.53;;;;;;;;;;4988485;28;20207;-69
2023/04/28 02:32:05;;;;;;;7.13;4.00;;;;;;;;;;4986536;28;20266;-69
2023/04/28 02:34:30;;;;;;;7.43;4.50;;;;;;;;;;4980583;28;20176;-68
2023/04/28 02:36:55;;;;;;;8.37;4.03;;;;;;;;;;4986370;28;20250;-68
2023/04/28 02:39:21;;;;;;;7.33;4.10;;;;;;;;;;4988921;28;20238;-68
2023/04/28 02:41:46;;;;;;;6.23;4.40;;;;;;;;;;4988375;28;20187;-68
2023/04/28 02:44:12;;;;;;;7.17;4.10;;;;;;;;;;4984699;28;20179;-68
2023/04/28 02:46:37;;;;;;;10.47;4.97;;;;;;;;;;4985127;28;20184;-68
2023/04/28 02:49:02;;;;;;;7.27;4.70;;;;;;;;;;4979910;28;20204;-68
2023/04/28 02:51:27;;;;;;;7.70;5.17;;;;;;;;;;4988174;28;20184;-68
2023/04/28 02:53:52;;;;;;;8.83;4.80;;;;;;;;;;4982515;28;20277;-68
2023/04/28 02:56:18;;;;;;;6.70;4.77;;;;;;;;;;4985385;28;20226;-68
2023/04/28 02:58:43;;;;;;;7.80;4.87;;;;;;;;;;4984612;28;20286;-68
2023/04/28 03:01:08;;;;;;;9.70;5.10;;;;;;;;;;4978397;28;20218;-68
2023/04/28 03:03:33;;;;;;;8.33;4.17;;;;;;;;;;4982272;28;20187;-68
2023/04/28 03:05:59;;;;;;;8.83;5.27;;;;;;;;;;4984135;28;20198;-69
2023/04/28 03:08:24;;;;;;;7.70;4.97;;;;;;;;;;4985342;28;20198;-68
2023/04/28 03:10:49;;;;;;;8.30;4.37;;;;;;;;;;4977573;28;20250;-68
2023/04/28 03:13:15;;;;;;;5.27;3.83;;;;;;;;;;4985174;28;20309;-68
2023/04/28 03:15:40;;;;;;;5.70;4.07;;;;;;;;;;4971726;28;20187;-70
2023/04/28 03:18:05;;;;;;;7.00;4.17;;;;;;;;;;4985450;28;20306;-69
2023/04/28 03:20:30;;;;;;;10.17;4.57;;;;;;;;;;4979090;28;20179;-68
2023/04/28 03:22:56;;;;;;;6.43;3.63;;;;;;;;;;4982569;28;20537;-68
2023/04/28 03:25:21;;;;;;;10.53;4.10;;;;;;;;;;4985922;28;20207;-68
2023/04/28 03:27:46;;;;;;;7.40;3.83;;;;;;;;;;4989440;22;20321;-79
2023/04/28 03:30:11;;;;;;;6.40;4.07;;;;;;;;;;4972691;28;20270;-79
2023/04/28 03:32:37;;;;;;;5.47;3.40;;;;;;;;;;4992883;28;20261;-78
2023/04/28 03:35:02;;;;;;;7.97;4.10;;;;;;;;;;4994952;28;20637;-80
2023/04/28 03:37:27;;;;;;;7.13;4.03;;;;;;;;;;4995040;28;20180;-80
2023/04/28 03:39:52;;;;;;;4.90;3.67;;;;;;;;;;4992430;28;20625;-80
2023/04/28 03:42:18;;;;;;;7.17;4.17;;;;;;;;;;4984172;28;20576;-80
2023/04/28 03:44:43;;;;;;;8.63;4.70;;;;;;;;;;4971870;28;20567;-80
2023/04/28 03:47:08;;;;;;;6.13;4.30;;;;;;;;;;4991792;28;20183;-80
2023/04/28 03:49:34;;;;;;;4.63;3.20;;;;;;;;;;4985142;28;20196;-80
2023/04/28 03:51:59;;;;;;;8.60;4.23;;;;;;;;;;4981845;28;20269;-80
2023/04/28 03:54:24;;;;;;;4.87;3.57;;;;;;;;;;4985583;28;20180;-79
2023/04/28 03:56:49;;;;;;;5.77;4.17;;;;;;;;;;4983115;28;20184;-80
2023/04/28 03:59:15;;;;;;;6.70;4.10;;;;;;;;;;4989056;28;20204;-80
2023/04/28 04:01:40;;;;;;;8.10;4.33;;;;;;;;;;4978109;28;20539;-80
2023/04/28 04:04:05;;;;;;;9.60;4.57;;;;;;;;;;4987995;28;20192;-80
2023/04/28 04:06:31;;;;;;;6.90;4.03;;;;;;;;;;4988600;28;20197;-80
2023/04/28 04:08:56;;;;;;;5.97;3.73;;;;;;;;;;4985467;28;20729;-80
2023/04/28 04:11:22;;;;;;;6.40;3.53;;;;;;;;;;4970615;28;20179;-79
2023/04/28 04:13:47;;;;;;;7.07;4.03;;;;;;;;;;4986415;28;20207;-80
2023/04/28 04:16:14;;;;;;;7.97;4.67;;;;;;;;;;4988267;28;20175;-80
2023/04/28 04:18:39;;;;;;;9.20;4.40;;;;;;;;;;4974425;28;20203;-79
2023/04/28 04:21:05;;;;;;;10.27;5.00;;;;;;;;;;4985671;28;20172;-80
2023/04/28 04:23:31;;;;;;;6.30;4.87;;;;;;;;;;4973507;28;20287;-80
2023/04/28 04:25:56;;;;;;;7.07;4.27;;;;;;;;;;4983768;28;20172;-81
2023/04/28 04:28:22;;;;;;;6.40;3.83;;;;;;;;;;4975243;28;20710;-80
2023/04/28 04:30:47;;;;;;;7.60;4.50;;;;;;;;;;4987027;28;20191;-80
2023/04/28 04:33:12;;;;;;;9.50;4.83;;;;;;;;;;4979202;28;20207;-80
2023/04/28 04:35:38;;;;;;;5.60;4.23;;;;;;;;;;4997332;28;20207;-80
2023/04/28 04:38:03;;;;;;;7.27;4.40;;;;;;;;;;4990155;28;20199;-80
2023/04/28 04:40:28;;;;;;;9.00;5.37;;;;;;;;;;4976423;28;20198;-80
2023/04/28 04:42:54;;;;;;;10.03;5.00;;;;;;;;;;4965675;28;20239;-79
2023/04/28 04:45:20;;;;;;;6.93;4.73;;;;;;;;;;4990915;28;20184;-79
2023/04/28 04:47:45;;;;;;;7.90;4.70;;;;;;;;;;4988643;28;20203;-80
2023/04/28 04:50:10;;;;;;;8.73;4.37;;;;;;;;;;4976549;28;20192;-80
2023/04/28 04:52:36;;;;;;;9.07;5.00;;;;;;;;;;4993937;28;20204;-79
2023/04/28 04:55:01;;;;;;;7.77;5.20;;;;;;;;;;4971725;28;20615;-79
2023/04/28 04:57:27;;;;;;;6.53;4.43;;;;;;;;;;4975348;28;20187;-79
2023/04/28 04:59:52;;;;;;;7.87;5.43;;;;;;;;;;4974676;28;20593;-79
2023/04/28 05:02:17;;;;;;;8.97;5.37;;;;;;;;;;4968285;28;20196;-79
2023/04/28 05:04:42;;;;;;;9.17;5.17;;;;;;;;;;4971476;28;20171;-80
2023/04/28 05:07:07;;;;;;;7.67;6.13;;;;;;;;;;4989352;28;20207;-80
2023/04/28 05:09:33;;;;;;;9.13;5.90;;;;;;;;;;4989687;28;20561;-79
2023/04/28 05:11:58;;;;;;;9.30;4.97;;;;;;;;;;4987196;28;20234;-80
2023/04/28 05:14:23;;;;;;;8.60;6.20;;;;;;;;;;4995866;28;20181;-79
2023/04/28 05:16:48;;;;;;;7.80;5.57;;;;;;;;;;4987436;28;20664;-79
2023/04/28 05:19:14;;;;;;;7.77;5.50;;;;;;;;;;4976486;28;20342;-78
2023/04/28 05:21:39;;;;;;;9.50;6.13;;;;;;;;;;4991299;28;20206;-78
2023/04/28 05:24:04;;;;;;;10.73;6.23;;;;;;;;;;4974076;28;20263;-78
2023/04/28 05:26:30;;;;;;;12.57;7.03;;;;;;;;;;4975250;28;20188;-77
2023/04/28 05:28:55;;;;;;;10.73;6.37;;;;;;;;;;4970764;28;20690;-78
2023/04/28 05:31:20;;;;;;;9.70;5.80;;;;;;;;;;4988361;28;20875;-78
2023/04/28 05:33:45;;;;;;;9.60;5.73;;;;;;;;;;4994207;28;20643;-78
2023/04/28 05:36:11;;;;;;;11.70;5.67;;;;;;;;;;4975266;28;20191;-78
2023/04/28 05:38:37;;;;;;;10.87;6.13;;;;;;;;;;4994531;28;20210;-77
2023/04/28 05:41:02;;;;;;;11.77;6.40;;;;;;;;;;4969932;28;20183;-77
2023/04/28 05:43:27;;;;;;;9.23;6.53;;;;;;;;;;4983986;28;20654;-77
2023/04/28 05:45:52;;;;;;;10.30;6.67;;;;;;;;;;4982912;28;20187;-77
2023/04/28 05:48:17;;;;;;;10.87;6.80;;;;;;;;;;4985970;28;20208;-77
2023/04/28 05:50:43;;;;;;;12.43;6.97;;;;;;;;;;4993659;28;20207;-77
2023/04/28 05:53:08;;;;;;;9.87;6.67;;;;;;;;;;4997176;28;20682;-77
2023/04/28 05:55:35;;;;;;;12.60;7.70;;;;;;;;;;4975445;28;20187;-77
2023/04/28 05:58:00;;;;;;;10.80;6.93;;;;;;;;;;4971556;28;20542;-76
2023/04/28 06:00:25;;;;;;;14.03;7.90;;;;;;;;;;4980071;28;20183;-76
2023/04/28 06:02:51;;;;;;;12.73;8.70;;;;;;;;;;4985736;28;20183;-76
2023/04/28 06:05:16;;;;;;;11.33;7.23;;;;;;;;;;4969378;28;20271;-76
2023/04/28 06:07:41;;;;;;;15.13;7.20;;;;;;;;;;4985808;28;20575;-76
2023/04/28 06:10:07;;;;;;;12.47;7.50;;;;;;;;;;5006273;28;20191;-77
2023/04/28 06:12:32;;;;;;;12.47;7.67;;;;;;;;;;4990046;28;20861;-77
2023/04/28 06:14:57;;;;;;;13.77;8.50;;;;;;;;;;4990413;28;20180;-77
2023/04/28 06:17:23;;;;;;;12.87;8.23;;;;;;;;;;4972500;28;20240;-77
2023/04/28 06:19:50;;;;;;;10.97;7.50;;;;;;;;;;4986367;28;20754;-77
2023/04/28 06:22:15;;;;;;;11.50;7.83;;;;;;;;;;4969521;28;20251;-77
2023/04/28 06:24:40;;;;;;;13.60;7.70;;;;;;;;;;4971458;28;20181;-77
2023/04/28 06:27:05;;;;;;;12.13;7.73;;;;;;;;;;4988962;28;20183;-78
2023/04/28 06:29:31;;;;;;;11.93;8.07;;;;;;;;;;4990991;28;20306;-77
2023/04/28 06:31:56;;;;;;;15.53;9.00;;;;;;;;;;4987029;28;20642;-77
2023/04/28 06:34:27;;;;;;;15.70;7.43;;;;;;;;;;4969971;28;20215;-77
2023/04/28 06:36:52;;;;;;;12.63;8.47;;;;;;;;;;4986831;28;20187;-77
2023/04/28 06:39:17;;;;;;;14.07;8.40;;;;;;;;;;4987249;28;20207;-77
2023/04/28 06:41:43;;;;;;;13.23;8.63;;;;;;;;;;4985721;28;20194;-77
2023/04/28 06:44:08;;;;;;;13.10;8.33;;;;;;;;;;4986976;28;20188;-77
2023/04/28 06:46:35;;;;;;;13.13;7.83;;;;;;;;;;4969277;28;20187;-77
2023/04/28 06:49:00;;;;;;;16.00;8.97;;;;;;;;;;4986155;28;20723;-77
2023/04/28 06:51:26;;;;;;;13.90;8.60;;;;;;;;;;4985020;28;20175;-77
2023/04/28 06:53:52;;;;;;;11.87;8.67;;;;;;;;;;4985507;28;20207;-77
2023/04/28 06:56:17;;;;;;;11.50;8.30;;;;;;;;;;4969031;28;20175;-77
2023/04/28 06:58:42;;;;;;;13.40;9.70;;;;;;;;;;4987190;28;20192;-78
2023/04/28 07:01:08;;;;;;;14.83;9.23;;;;;;;;;;4981261;28;20625;-78
2023/04/28 07:03:33;;;;;;;16.53;10.03;;;;;;;;;;4966471;28;20179;-77
2023/04/28 07:05:58;;;;;;;12.47;9.03;;;;;;;;;;4986221;28;21132;-77
2023/04/28 07:08:23;;;;;;;18.60;9.33;;;;;;;;;;4987843;28;20204;-77
2023/04/28 07:10:49;;;;;;;16.00;10.47;;;;;;;;;;4969895;28;20192;-78
2023/04/28 07:13:14;;;;;;;17.87;9.77;;;;;;;;;;4985638;28;20587;-78
2023/04/28 07:15:39;;;;;;;16.77;10.33;;;;;;;;;;4985349;28;20209;-78
2023/04/28 07:18:04;;;;;;;12.53;9.87;;;;;;;;;;4982146;28;20246;-78
2023/04/28 07:20:30;;;;;;;16.25;10.20;;;;;;;;;;4969286;28;20191;-78
2023/04/28 07:22:55;;;;;;;15.63;8.88;;;;;;;;;;4985576;28;20329;-77
2023/04/28 07:25:20;;;;;;;16.23;10.20;;;;;;;;;;4987144;28;20191;-77
2023/04/28 07:27:46;;;;;;;15.90;10.68;;;;;;;;;;4969719;28;20207;-78
2023/04/28 07:30:12;;;;;;;14.23;9.93;;;;;;;;;;4984647;28;20187;-78
2023/04/28 07:32:37;;;;;;;15.60;10.80;;;;;;;;;;4966742;28;20206;-78
2023/04/28 07:35:03;;;;;;;18.23;10.10;;;;;;;;;;4986779;28;20803;-78
2023/04/28 07:37:28;;;;;;;15.23;10.35;;;;;;;;;;4976785;28;20178;-78
2023/04/28 07:39:53;;;;;;;17.40;11.15;;;;;;;;;;4963260;28;20168;-77
2023/04/28 07:42:19;;;;;;;17.00;10.15;;;;;;;;;;4987303;28;20186;-78
2023/04/28 07:44:44;;;;;;;16.95;11.25;;;;;;;;;;4985307;28;20171;-78
2023/04/28 07:47:10;;;;;;;15.40;10.63;;;;;;;;;;4984745;28;20175;-78
2023/04/28 07:49:35;;;;;;;16.40;10.13;;;;;;;;;;4987773;28;20176;-78
2023/04/28 07:52:01;;;;;;;13.43;9.77;;;;;;;;;;4973837;28;20176;-77
2023/04/28 07:54:26;;;;;;;17.10;11.65;;;;;;;;;;4992685;28;20215;-77
2023/04/28 07:56:51;;;;;;;15.00;10.77;;;;;;;;;;4983012;28;20182;-77
2023/04/28 07:59:17;;;;;;;16.10;11.93;;;;;;;;;;4965861;28;20200;-77
2023/04/28 08:01:42;;;;;;;17.10;11.93;;;;;;;;;;4981503;28;20650;-78
2023/04/28 08:04:07;;;;;;;18.38;10.20;;;;;;;;;;4983024;28;20748;-77
2023/04/28 08:06:33;;;;;;;17.42;11.80;;;;;;;;;;4982507;28;20596;-77
2023/04/28 08:08:59;;;;;;;16.05;11.68;;;;;;;;;;4983114;28;20615;-77
2023/04/28 08:11:24;;;;;;;14.55;10.77;;;;;;;;;;4982519;28;20238;-76
2023/04/28 08:13:49;;;;;;;16.70;11.98;;;;;;;;;;4981466;28;20203;-76
2023/04/28 08:16:14;;;;;;;17.73;12.40;;;;;;;;;;4982163;28;20647;-77
2023/04/28 08:18:40;;;;;;;19.13;12.77;;;;;;;;;;4982151;28;20199;-77
2023/04/28 08:21:05;;;;;;;17.13;12.18;;;;;;;;;;4966093;28;20194;-76
2023/04/28 08:23:30;;;;;;;18.83;12.75;;;;;;;;;;4964716;28;20187;-76
2023/04/28 08:25:56;;;;;;;16.17;12.25;;;;;;;;;;4981026;28;20180;-76
2023/04/28 08:28:21;;;;;;;17.85;12.70;;;;;;;;;;4982830;28;20215;-76
2023/04/28 08:30:46;;;;;;;17.90;13.13;;;;;;;;;;4981326;28;20208;-77
2023/04/28 08:33:11;;;;;;;17.20;12.90;;;;;;;;;;4960639;28;20241;-76
2023/04/28 08:35:37;;;;;;;20.23;13.65;;;;;;;;;;4982826;28;20537;-76
2023/04/28 08:38:02;;;;;;;21.98;12.70;;;;;;;;;;4966074;28;20612;-76
2023/04/28 08:40:30;;;;;;;17.60;12.70;;;;;;;;;;4963706;28;20226;-75
2023/04/28 08:42:55;;;;;;;15.93;11.93;;;;;;;;;;4965213;28;20553;-76
2023/04/28 08:45:22;;;;;;;18.83;12.23;;;;;;;;;;4965995;28;20198;-77
2023/04/28 08:47:48;;;;;;;15.88;12.10;;;;;;;;;;4967055;28;20309;-76
2023/04/28 08:50:14;;;;;;;16.40;12.80;;;;;;;;;;4982711;28;20184;-76
2023/04/28 08:52:40;;;;;;;17.25;12.05;;;;;;;;;;4985406;28;20195;-78
2023/04/28 08:55:07;;;;;;;17.75;12.15;;;;;;;;;;4988441;28;20202;-77
2023/04/28 08:57:36;;;;;;;14.27;12.35;;;;;;;;;;4986167;28;20605;-77
2023/04/28 09:00:02;;;;;;;16.35;12.95;;;;;;;;;;4984528;28;20180;-77
2023/04/28 09:02:27;;;;;;;17.35;12.60;;;;;;;;;;4967666;28;20464;-77
2023/04/28 09:04:52;;;;;;;16.92;12.88;;;;;;;;;;4969281;28;20180;-77
2023/04/28 09:07:17;;;;;;;17.00;13.38;;;;;;;;;;4967955;28;20559;-77
2023/04/28 09:09:44;;;;;;;16.05;12.48;;;;;;;;;;4967424;28;20187;-77
2023/04/28 09:12:10;;;;;;;16.35;12.35;;;;;;;;;;4964811;28;20184;-77
2023/04/28 09:14:36;;;;;;;14.93;11.85;;;;;;;;;;4968751;28;20229;-77
2023/04/28 09:17:01;;;;;;;14.57;11.68;;;;;;;;;;4988127;28;20235;-77
2023/04/28 09:19:34;;;;;;;14.45;11.00;;;;;;;;;;4986916;28;20800;-77
2023/04/28 09:22:00;;;;;;;15.50;11.23;;;;;;;;;;4986819;28;20323;-77
2023/04/28 09:24:29;;;;;;;12.35;10.35;;;;;;;;;;4987459;28;20175;-77
2023/04/28 09:26:55;;;;;;;13.38;9.73;;;;;;;;;;4981436;28;20433;-77
2023/04/28 09:29:20;;;;;;;13.93;10.50;;;;;;;;;;4996952;22;20231;-68
2023/04/28 09:31:45;;;;;;;13.60;10.45;;;;;;;;;;4969841;28;20184;-68
2023/04/28 09:34:11;;;;;;;14.05;10.07;;;;;;;;;;4987575;28;20234;-67
2023/04/28 09:36:36;;;;;;;12.95;9.68;;;;;;;;;;4965830;28;20176;-68
2023/04/28 09:39:01;;;;;;;13.82;10.30;;;;;;;;;;4986504;28;20200;-68
2023/04/28 09:41:42;;;;;;;14.65;10.90;;;;;;;;;;4987912;28;20184;-68
2023/04/28 09:44:18;;;;;;;14.57;10.98;;;;;;;;;;4979017;28;20282;-68
2023/04/28 09:46:44;;;;;;;14.65;10.80;;;;;;;;;;4987185;28;20213;-68
2023/04/28 09:49:09;;;;;;;17.52;10.40;;;;;;;;;;4993786;28;20716;-68
2023/04/28 09:51:35;;;;;;;11.60;9.40;;;;;;;;;;4989007;28;20172;-68
2023/04/28 09:54:03;;;;;;;16.70;10.27;;;;;;;;;;4957119;28;20223;-68
2023/04/28 09:56:29;;;;;;;13.77;10.52;;;;;;;;;;4992295;28;20609;-68
2023/04/28 09:58:58;;;;;;;13.15;9.30;;;;;;;;;;4988312;28;20677;-68
2023/04/28 10:01:27;;;;;;;14.30;11.23;;;;;;;;;;4980526;28;20184;-69
2023/04/28 10:03:55;;;;;;;14.18;10.50;;;;;;;;;;4963054;28;20663;-68
2023/04/28 10:06:21;;;;;;;14.80;10.38;;;;;;;;;;4986947;28;20618;-68
2023/04/28 10:08:47;;;;;;;14.65;10.68;;;;;;;;;;4990185;28;20206;-68
2023/04/28 10:11:14;;;;;;;14.05;10.90;;;;;;;;;;4988799;28;20171;-68
2023/04/28 10:13:40;;;;;;;15.90;10.60;;;;;;;;;;4988589;28;20210;-68
2023/04/28 10:16:06;;;;;;;13.50;9.10;;;;;;;;;;4985685;28;20169;-68
2023/04/28 10:18:34;;;;;;;16.73;11.00;;;;;;;;;;4987624;28;20224;-68
2023/04/28 10:21:02;;;;;;;14.85;10.55;;;;;;;;;;4959909;28;20199;-68
2023/04/28 10:23:39;;;;;;;16.20;9.85;;;;;;;;;;4969330;28;20180;-67
2023/04/28 10:26:09;;;;;;;17.25;11.05;;;;;;;;;;4971419;28;20676;-67
2023/04/28 10:28:35;;;;;;;16.05;9.88;;;;;;;;;;4968883;28;20223;-67
2023/04/28 10:31:22;;;;;;;14.25;9.88;;;;;;;;;;4966584;28;20195;-67
2023/04/28 10:33:47;;;;;;;17.25;9.93;;;;;;;;;;4968631;28;20315;-67
2023/04/28 10:36:42;;;;;;;12.32;8.90;;;;;;;;;;4967482;28;20183;-68
2023/04/28 10:39:08;;;;;;;11.40;7.50;;;;;;;;;;4981627;28;21444;-68
2023/04/28 10:41:33;;;;;;;9.50;6.72;;;;;;;;;;4969580;28;20890;-68
2023/04/28 10:43:58;;;;;;;13.30;7.68;;;;;;;;;;4969375;28;20198;-68
2023/04/28 10:46:24;;;;;;;9.32;6.18;;;;;;;;;;4967558;28;20187;-68
2023/04/28 10:48:49;;;;;;;13.68;6.40;;;;;;;;;;4966950;28;20211;-68
2023/04/28 10:51:14;;;;;;;9.90;5.75;;;;;;;;;;4966542;28;20329;-68
2023/04/28 10:53:47;;;;;;;8.60;5.57;;;;;;;;;;4952710;28;20299;-68
2023/04/28 10:56:17;;;;;;;10.85;6.93;;;;;;;;;;4968969;28;20597;-67
2023/04/28 10:58:44;;;;;;;10.50;7.28;;;;;;;;;;4969078;28;20203;-68
2023/04/28 11:01:16;;;;;;;8.95;5.40;;;;;;;;;;4968930;28;20242;-68
2023/04/28 11:03:50;;;;;;;7.78;5.35;;;;;;;;;;4970475;28;21326;-68
2023/04/28 11:06:25;;;;;;;8.00;5.32;;;;;;;;;;4970774;28;20197;-68
2023/04/28 11:09:01;;;;;;;8.23;5.30;;;;;;;;;;4954089;28;20219;-67
2023/04/28 11:11:30;;;;;;;7.88;4.70;;;;;;;;;;4967431;28;20176;-67
2023/04/28 11:14:15;;;;;;;7.32;4.13;;;;;;;;;;4968184;28;20556;-69
2023/04/28 11:16:52;;;;;;;6.65;4.38;;;;;;;;;;4967021;28;20183;-68
2023/04/28 11:19:23;;;;;;;9.70;5.22;;;;;;;;;;4967961;28;20200;-67
2023/04/28 11:21:48;;;;;;;8.23;4.85;;;;;;;;;;4969805;28;20175;-68
2023/04/28 11:24:14;;;;;;;4.18;2.90;;;;;;;;;;4967317;28;20250;-68
2023/04/28 11:26:39;;;;;;;5.75;3.33;;;;;;;;;;4967108;28;20192;-68
2023/04/28 11:29:05;;;;;;;6.05;2.83;;;;;;;;;;4968925;28;20316;-68
2023/04/28 11:31:30;;;;;;;3.80;2.30;;;;;;;;;;4982193;28;20264;-67
2023/04/28 11:34:06;;;;;;;2.15;1.63;;;;;;;;;;4990071;28;20582;-67
2023/04/28 11:36:36;;;;;;;2.33;1.75;;;;;;;;;;4991548;28;20190;-68
2023/04/28 11:39:03;;;;;;;2.55;1.73;;;;;;;;;;4968593;28;20221;-68
2023/04/28 11:41:29;;;;;;;4.18;2.15;;;;;;;;;;4966027;28;20686;-68
2023/04/28 11:43:54;;;;;;;2.13;1.75;;;;;;;;;;4955345;28;20187;-69
2023/04/28 11:46:21;;;;;;;2.38;1.80;;;;;;;;;;4951580;28;20650;-68
2023/04/28 11:48:46;;;;;;;2.33;1.65;;;;;;;;;;4955333;28;20257;-70
2023/04/28 11:51:31;;;;;;;1.77;1.45;;;;;;;;;;4967054;28;20184;-67
2023/04/28 11:53:57;;;;;;;2.40;1.60;;;;;;;;;;4986675;28;20294;-68
2023/04/28 11:56:22;;;;;;;2.38;1.60;;;;;;;;;;4973594;28;20266;-68
2023/04/28 11:58:58;;;;;;;1.98;1.55;;;;;;;;;;4966184;28;20531;-68
2023/04/28 12:01:23;;;;;;;4.28;1.67;;;;;;;;;;4965417;28;20306;-68
2023/04/28 12:03:49;;;;;;;2.15;1.58;;;;;;;;;;4952860;28;20563;-68
2023/04/28 12:06:17;;;;;;;2.80;1.73;;;;;;;;;;4967952;28;20203;-68
2023/04/28 12:08:43;;;;;;;2.22;2.00;;;;;;;;;;4951179;28;20306;-68
2023/04/28 12:11:11;;;;;;;1.70;1.30;;;;;;;;;;4952708;28;20414;-68
2023/04/28 12:13:37;;;;;;;1.88;1.60;;;;;;;;;;4965174;28;20382;-68
2023/04/28 12:16:06;;;;;;;1.75;0.90;;;;;;;;;;4967212;28;20806;-68
2023/04/28 12:18:32;;;;;;;1.85;1.23;;;;;;;;;;4965923;28;20695;-68
2023/04/28 12:20:57;;;;;;;1.85;1.48;;;;;;;;;;4966325;28;20238;-68
2023/04/28 12:23:29;;;;;;;1.20;1.10;;;;;;;;;;4968534;28;20872;-67
2023/04/28 12:25:54;;;;;;;1.25;0.90;;;;;;;;;;4953826;28;20586;-67
2023/04/28 12:28:19;;;;;;;0.98;0.88;;;;;;;;;;4966233;28;20305;-69
2023/04/28 12:30:45;;;;;;;3.25;1.30;;;;;;;;;;4964062;28;20657;-67
2023/04/28 12:33:23;;;;;;;0.93;0.90;;;;;;;;;;4966913;28;20203;-69
2023/04/28 12:35:49;;;;;;;0.90;0.80;;;;;;;;;;4967684;28;20218;-67
2023/04/28 12:38:14;;;;;;;1.95;1.27;;;;;;;;;;4952523;28;20207;-67
2023/04/28 12:40:40;;;;;;;1.27;0.98;;;;;;;;;;4973037;28;20172;-68
2023/04/28 12:43:05;;;;;;;1.42;1.23;;;;;;;;;;4967531;28;21048;-67
2023/04/28 12:45:31;;;;;;;2.35;1.10;;;;;;;;;;4968610;28;20187;-67
2023/04/28 12:47:56;;;;;;;3.67;1.30;;;;;;;;;;4965776;28;20320;-69
2023/04/28 12:50:23;;;;;;;1.67;1.40;;;;;;;;;;4970963;28;21327;-69
2023/04/28 12:52:48;;;;;;;1.65;1.52;;;;;;;;;;4970012;28;20333;-67
2023/04/28 12:55:13;;;;;;;2.33;2.10;;;;;;;;;;4975142;28;20848;-69
2023/04/28 12:57:38;;;;;;;3.67;2.03;;;;;;;;;;4976333;28;20222;-69
2023/04/28 13:00:05;;;;;;;2.20;2.00;;;;;;;;;;4969987;28;20623;-67
2023/04/28 13:02:30;;;;;;;2.15;1.95;;;;;;;;;;4971971;28;20181;-68
2023/04/28 13:04:55;;;;;;;2.10;1.90;;;;;;;;;;4973128;28;20189;-68
2023/04/28 13:07:21;;;;;;;2.22;1.90;;;;;;;;;;4971159;28;20187;-68
2023/04/28 13:09:46;;;;;;;1.60;1.50;;;;;;;;;;4957618;28;20204;-68
2023/04/28 13:12:12;;;;;;;1.77;1.60;;;;;;;;;;4970934;28;21307;-68
2023/04/28 13:14:37;;;;;;;1.50;1.40;;;;;;;;;;4972675;28;20214;-68
2023/04/28 13:17:03;;;;;;;1.60;1.50;;;;;;;;;;4970178;28;20713;-68
2023/04/28 13:19:29;;;;;;;1.30;1.20;;;;;;;;;;4971059;28;20219;-68
2023/04/28 13:21:54;;;;;;;1.48;1.38;;;;;;;;;;4970870;28;20205;-68
2023/04/28 13:24:19;;;;;;;1.88;1.77;;;;;;;;;;4971803;28;20665;-68
2023/04/28 13:26:45;;;;;;;1.80;1.70;;;;;;;;;;4969925;28;20677;-68
2023/04/28 13:29:11;;;;;;;2.30;1.60;;;;;;;;;;4984479;28;20212;-68
2023/04/28 13:31:36;;;;;;;1.90;1.75;;;;;;;;;;4973628;28;20194;-68
2023/04/28 13:34:02;;;;;;;2.47;2.28;;;;;;;;;;4971451;28;20264;-68
2023/04/28 13:36:28;;;;;;;2.90;2.70;;;;;;;;;;4968592;28;20181;-67
2023/04/28 13:38:54;;;;;;;2.60;2.40;;;;;;;;;;4971517;28;20207;-68
2023/04/28 13:41:20;;;;;;;2.92;2.63;;;;;;;;;;4980839;28;20191;-68
2023/04/28 13:43:45;;;;;;;3.08;2.88;;;;;;;;;;4964703;28;20230;-68
2023/04/28 13:46:10;;;;;;;6.53;3.50;;;;;;;;;;4971252;28;20651;-68
2023/04/28 13:48:36;;;;;;;4.60;3.25;;;;;;;;;;4974655;28;20597;-68
2023/04/28 13:51:02;;;;;;;6.13;3.30;;;;;;;;;;4970524;28;20171;-68
2023/04/28 13:53:27;;;;;;;4.75;3.60;;;;;;;;;;4984100;28;20196;-68
2023/04/28 13:55:56;;;;;;;5.40;3.97;;;;;;;;;;4961105;28;20187;-68
2023/04/28 13:58:21;;;;;;;5.05;4.18;;;;;;;;;;4955394;28;20209;-69
2023/04/28 14:00:46;;;;;;;5.03;4.07;;;;;;;;;;4970583;28;20176;-69
2023/04/28 14:03:11;;;;;;;5.53;4.10;;;;;;;;;;4964868;28;20215;-68
2023/04/28 14:05:37;;;;;;;4.72;3.47;;;;;;;;;;4968550;28;20185;-69
2023/04/28 14:08:02;;;;;;;6.93;4.50;;;;;;;;;;4967267;28;20203;-68
2023/04/28 14:10:27;;;;;;;5.97;4.47;;;;;;;;;;4972282;28;20561;-68
2023/04/28 14:12:53;;;;;;;6.65;4.78;;;;;;;;;;4969354;28;20199;-68
2023/04/28 14:15:18;;;;;;;8.48;5.55;;;;;;;;;;4970356;28;20677;-69
2023/04/28 14:17:43;;;;;;;8.05;5.85;;;;;;;;;;4970696;28;20172;-68
2023/04/28 14:20:10;;;;;;;11.63;7.05;;;;;;;;;;4970756;28;20665;-68
2023/04/28 14:22:36;;;;;;;11.68;8.20;;;;;;;;;;4968188;28;20176;-68
2023/04/28 14:25:01;;;;;;;11.82;7.85;;;;;;;;;;4970415;28;20187;-68
2023/04/28 14:27:27;;;;;;;14.25;9.30;;;;;;;;;;4967228;28;20180;-69
2023/04/28 14:29:52;;;;;;;13.88;9.35;;;;;;;;;;4971256;28;20238;-68